Time;durP1;ratioP1;P1;durP2;ratioP2;P2;SDS_P1;SDS_P2;PMS_P1;PMS_P2;Temp;Humidity;BMP_temperature;BMP_pressure;BME280_temperature;BME280_humidity;BME280_pressure;Samples;Min_cycle;Max_cycle;Signal;HPM_P1;HPM_P2
2023/12/16 00:02:12;;;;;;;16.58;14.70;;;8.20;41.40;;;6.72;100.00;102904.91;5017316;28;20084;-79
2023/12/16 00:04:43;;;;;;;;;;;8.10;41.90;;;6.81;100.00;102918.28;5015207;28;20065;-78
2023/12/16 00:07:10;;;;;;;19.58;15.27;;;8.10;41.30;;;6.66;100.00;102897.75;5002698;28;20398;-78
2023/12/16 00:09:37;;;;;;;20.05;15.23;;;8.10;42.10;;;6.49;100.00;102873.63;4990309;28;20057;-78
2023/12/16 00:12:05;;;;;;;29.15;26.17;;;8.10;42.30;;;6.76;100.00;102918.13;5009744;28;20868;-78
2023/12/16 00:14:36;;;;;;;19.00;15.77;;;8.00;48.40;;;6.72;100.00;102933.69;5018756;28;20039;-78
2023/12/16 00:17:04;;;;;;;18.10;15.40;;;7.90;51.00;;;6.63;100.00;102902.84;5003799;28;20057;-77
2023/12/16 00:19:31;;;;;;;20.13;16.30;;;7.90;51.80;;;6.65;100.00;102903.81;5000704;28;20046;-78
2023/12/16 00:21:58;;;;;;;22.85;16.58;;;7.80;53.60;;;6.62;100.00;102907.22;5024219;28;20064;-78
2023/12/16 00:24:25;;;;;;;24.08;19.25;;;7.80;53.90;;;6.57;100.00;102900.06;5029668;28;20046;-78
2023/12/16 00:26:53;;;;;;;24.33;17.33;;;7.80;55.20;;;6.53;100.00;102886.88;4996487;28;20057;-77
2023/12/16 00:29:20;;;;;;;18.20;16.08;;;7.90;52.50;;;6.36;100.00;102854.03;5013600;28;20798;-77
2023/12/16 00:31:50;;;;;;;21.67;17.23;;;7.80;51.60;;;6.65;100.00;102912.53;5014208;28;20113;-77
2023/12/16 00:34:17;;;;;;;21.10;14.63;;;7.80;51.30;;;6.59;100.00;102907.13;5011671;28;20489;-77
2023/12/16 00:36:45;;;;;;;20.92;14.90;;;7.90;51.10;;;6.61;100.00;102921.13;4983646;28;20042;-77
2023/12/16 00:39:12;;;;;;;20.95;16.05;;;7.90;52.50;;;6.63;100.00;102923.78;4995195;28;20052;-78
2023/12/16 00:41:42;;;;;;;21.25;16.95;;;7.90;49.40;;;6.49;100.00;102894.56;5001366;28;20062;-77
2023/12/16 00:44:09;;;;;;;30.38;22.30;;;7.90;48.30;;;6.67;100.00;102926.56;5010418;28;20497;-77
2023/12/16 00:46:36;;;;;;;25.92;16.85;;;8.00;49.50;;;6.50;100.00;102899.84;5022592;28;20061;-77
2023/12/16 00:49:04;;;;;;;20.73;16.23;;;7.90;49.90;;;6.30;100.00;102864.28;5001617;28;20038;-78
2023/12/16 00:51:31;;;;;;;21.92;16.33;;;7.90;50.40;;;6.57;100.00;102905.28;5013569;28;20136;-77
2023/12/16 00:53:58;;;;;;;19.50;16.02;;;8.00;48.20;;;6.52;100.00;102899.88;5010261;28;20141;-78
2023/12/16 00:56:28;;;;;;;19.40;15.60;;;8.00;45.80;;;6.69;100.00;102931.88;5012670;28;20141;-78
2023/12/16 00:58:56;;;;;;;;;;;8.00;42.20;;;6.53;100.00;102902.56;5024169;28;20385;-77
2023/12/16 01:01:24;;;;;;;17.63;13.90;;;8.00;39.30;;;6.74;100.00;102942.50;5016341;28;19995;-79
2023/12/16 01:03:53;;;;;;;21.85;16.05;;;8.00;40.20;;;6.37;100.00;102889.81;5016609;28;20050;-78
2023/12/16 01:06:21;;;;;;;21.58;14.98;;;8.00;38.50;;;6.65;100.00;102923.00;5013041;28;20073;-78
2023/12/16 01:08:47;;;;;;;19.50;14.57;;;8.00;38.10;;;6.74;100.00;102930.28;4990770;28;20413;-79
2023/12/16 01:11:15;;;;;;;17.92;14.35;;;8.00;38.00;;;6.60;100.00;102926.31;5017954;28;20044;-79
2023/12/16 01:13:42;;;;;;;24.48;14.90;;;8.10;39.70;;;6.54;100.00;102911.28;5012077;28;20160;-78
2023/12/16 01:16:09;;;;;;;17.60;14.63;;;8.30;38.30;;;6.53;100.00;102902.56;5006148;28;20184;-79
2023/12/16 01:18:36;;;;;;;21.42;15.88;;;8.00;37.00;;;6.53;100.00;102922.59;4996038;28;20050;-78
2023/12/16 01:21:05;;;;;;;20.13;16.25;;;7.90;36.40;;;6.61;100.00;102925.47;4997310;28;20061;-78
2023/12/16 01:23:33;;;;;;;20.20;15.70;;;8.00;36.80;;;6.69;100.00;102941.41;4995492;28;20037;-79
2023/12/16 01:26:00;;;;;;;18.92;15.43;;;8.00;36.60;;;6.60;100.00;102937.69;5002923;28;20132;-77
2023/12/16 01:28:27;;;;;;;20.40;14.90;;;8.00;36.80;;;6.66;100.00;102944.84;5010093;28;20045;-79
2023/12/16 01:30:54;;;;;;;17.13;14.85;;;8.00;36.90;;;6.69;100.00;102944.03;5011762;28;20046;-78
2023/12/16 01:33:21;;;;;;;19.40;14.93;;;8.00;36.60;;;6.64;100.00;102938.69;5018483;28;20056;-79
2023/12/16 01:35:48;;;;;;;18.20;15.32;;;8.00;36.80;;;6.63;100.00;102937.78;4995675;28;20129;-77
2023/12/16 01:38:15;;;;;;;20.73;15.57;;;8.90;37.00;;;6.57;100.00;102953.28;5002810;28;20046;-78
2023/12/16 01:40:42;;;;;;;20.42;15.05;;;7.90;38.70;;;6.19;100.00;102875.28;5023280;28;20053;-78
2023/12/16 01:43:10;;;;;;;23.23;15.20;;;7.90;40.30;;;6.55;100.00;102934.00;5013124;28;20117;-77
2023/12/16 01:45:37;;;;;;;19.25;15.07;;;7.90;41.70;;;6.39;100.00;102903.81;5000583;28;20839;-79
2023/12/16 01:48:06;;;;;;;24.02;16.40;;;7.90;41.30;;;6.60;100.00;102939.38;5025454;28;20076;-78
2023/12/16 01:50:34;;;;;;;19.42;16.35;;;7.90;42.10;;;6.49;100.00;102926.84;5001376;28;20817;-79
2023/12/16 01:53:03;;;;;;;17.40;14.45;;;7.80;42.50;;;6.34;100.00;102913.25;5025588;28;20107;-78
2023/12/16 01:55:32;;;;;;;18.58;14.73;;;7.80;42.50;;;6.50;100.00;102941.72;5005425;28;20055;-78
2023/12/16 01:58:02;;;;;;;21.53;14.93;;;7.80;43.30;;;6.23;100.00;102898.06;5011107;28;20476;-78
2023/12/16 02:00:31;;;;;;;;;;;7.80;44.00;;;6.59;100.00;102958.53;4997873;28;20560;-78
2023/12/16 02:02:58;;;;;;;17.23;14.23;;;8.30;43.90;;;6.57;100.00;102950.66;5020022;28;19926;-79
2023/12/16 02:05:25;;;;;;;19.67;16.30;;;8.00;43.80;;;6.63;100.00;102960.41;4996011;28;20136;-77
2023/12/16 02:07:52;;;;;;;21.65;15.77;;;7.90;42.80;;;6.65;100.00;102953.53;5012868;28;20177;-78
2023/12/16 02:10:19;;;;;;;22.65;15.27;;;7.90;41.90;;;6.58;100.00;102938.44;5012837;28;20046;-78
2023/12/16 02:12:46;;;;;;;18.77;15.40;;;8.00;41.90;;;6.50;100.00;102925.13;5013052;28;20049;-79
2023/12/16 02:15:13;;;;;;;20.30;16.27;;;7.90;42.20;;;6.39;100.00;102906.44;5011577;28;20060;-78
2023/12/16 02:17:40;;;;;;;22.92;16.45;;;7.90;43.00;;;6.25;100.00;102887.69;5009156;28;20051;-79
2023/12/16 02:20:09;;;;;;;20.30;16.00;;;7.90;44.40;;;6.52;100.00;102940.03;5018190;28;20072;-78
2023/12/16 02:22:39;;;;;;;30.67;17.30;;;7.90;44.50;;;6.46;100.00;102931.09;5015681;28;20038;-79
2023/12/16 02:25:09;;;;;;;22.85;17.67;;;7.80;45.20;;;6.43;100.00;102933.59;5009573;28;20505;-79
2023/12/16 02:27:36;;;;;;;24.13;16.85;;;7.90;47.30;;;6.56;100.00;102963.66;5009966;28;20057;-78
2023/12/16 02:30:05;;;;;;;22.33;16.95;;;7.80;47.70;;;6.48;100.00;102948.63;4978878;28;20050;-77
2023/12/16 02:32:32;;;;;;;23.38;16.83;;;7.90;46.80;;;6.36;100.00;102929.88;5020191;28;20057;-78
2023/12/16 02:34:59;;;;;;;21.58;16.50;;;7.90;46.60;;;6.50;100.00;102964.34;4996234;28;20133;-77
2023/12/16 02:37:26;;;;;;;25.08;18.08;;;7.70;52.10;;;6.32;100.00;102954.13;5029579;28;20053;-78
2023/12/16 02:39:53;;;;;;;20.67;17.02;;;7.70;54.90;;;6.39;100.00;102967.47;5011150;28;20050;-78
2023/12/16 02:42:20;;;;;;;21.98;17.15;;;7.70;55.30;;;6.49;100.00;102987.00;5021947;28;20054;-78
2023/12/16 02:44:47;;;;;;;26.67;18.08;;;7.80;54.20;;;6.39;100.00;102962.22;4996168;28;20062;-77
2023/12/16 02:47:14;;;;;;;22.85;18.23;;;7.80;52.60;;;6.44;100.00;102961.53;5008296;28;20065;-77
2023/12/16 02:49:41;;;;;;;24.58;17.85;;;7.90;50.50;;;6.56;100.00;102980.28;4987423;28;20597;-77
2023/12/16 02:52:08;;;;;;;23.92;16.77;;;7.90;48.00;;;6.48;100.00;102966.03;5026645;28;20348;-78
2023/12/16 02:54:35;;;;;;;24.42;17.02;;;7.80;49.00;;;6.54;100.00;102981.91;4985070;28;20053;-77
2023/12/16 02:57:03;;;;;;;21.38;17.67;;;7.80;51.70;;;6.50;100.00;102993.13;4993385;28;20064;-78
2023/12/16 02:59:30;;;;;;;22.83;17.48;;;7.80;52.70;;;6.50;100.00;102980.94;4992190;28;20077;-78
2023/12/16 03:01:57;;;;;;;22.40;18.38;;;7.80;54.20;;;6.44;100.00;102977.22;4992881;28;20054;-77
2023/12/16 03:04:24;;;;;;;24.92;18.45;;;7.70;52.50;;;6.21;100.00;102954.66;5005274;28;20133;-79
2023/12/16 03:06:51;;;;;;;23.13;18.30;;;7.80;54.70;;;6.56;100.00;103003.81;5018275;28;20627;-79
2023/12/16 03:09:18;;;;;;;25.65;18.13;;;7.80;54.90;;;6.47;100.00;102991.28;4993195;28;20046;-78
2023/12/16 03:11:45;;;;;;;23.48;18.77;;;7.70;55.90;;;5.99;100.00;102916.34;5003037;28;20046;-78
2023/12/16 03:14:12;;;;;;;21.92;18.15;;;7.80;55.00;;;6.56;100.00;102993.34;5007342;28;20041;-78
2023/12/16 03:16:39;;;;;;;24.17;16.73;;;7.70;53.30;;;6.52;100.00;102983.59;5020835;28;20132;-79
2023/12/16 03:19:06;;;;;;;22.67;18.42;;;7.80;53.00;;;6.49;100.00;102979.16;4995960;28;20132;-78
2023/12/16 03:21:33;;;;;;;23.17;18.02;;;7.80;51.60;;;6.49;100.00;102979.16;4995232;28;20148;-78
2023/12/16 03:24:00;;;;;;;21.45;15.95;;;7.90;49.20;;;6.61;100.00;103001.34;5002565;28;20054;-79
2023/12/16 03:26:27;;;;;;;20.20;15.85;;;7.90;47.60;;;6.58;100.00;102994.28;5006482;28;20046;-78
2023/12/16 03:28:54;;;;;;;18.55;16.27;;;8.30;46.00;;;6.55;100.00;102983.69;5011139;28;20042;-78
2023/12/16 03:31:21;;;;;;;20.63;16.35;;;7.90;44.90;;;6.15;100.00;102933.50;5010919;28;20046;-78
2023/12/16 03:33:48;;;;;;;22.13;17.40;;;7.90;46.20;;;6.58;100.00;102989.06;5016192;28;20054;-78
2023/12/16 03:36:15;;;;;;;24.40;18.48;;;7.20;44.80;;;6.53;100.00;102988.91;5001925;28;20077;-79
2023/12/16 03:38:43;;;;;;;31.10;22.80;;;7.90;45.30;;;6.30;100.00;102940.09;5001071;28;20140;-78
2023/12/16 03:41:11;;;;;;;26.00;19.13;;;7.80;47.30;;;6.52;100.00;102996.66;4993536;28;20163;-77
2023/12/16 03:43:38;;;;;;;23.33;17.98;;;7.70;51.40;;;6.39;100.00;102977.06;5008816;28;20500;-78
2023/12/16 03:46:07;;;;;;;23.75;18.25;;;7.70;54.80;;;6.42;100.00;102966.69;5009589;28;20062;-78
2023/12/16 03:48:35;;;;;;;24.05;18.70;;;7.60;56.40;;;6.43;100.00;102978.06;5001770;28;20034;-78
2023/12/16 03:51:03;;;;;;;22.60;17.73;;;7.60;57.30;;;6.30;100.00;102951.47;5009575;28;20046;-79
2023/12/16 03:53:30;;;;;;;22.80;17.00;;;7.70;56.90;;;6.34;100.00;102965.56;5009178;28;20046;-78
2023/12/16 03:55:57;;;;;;;20.40;17.45;;;7.60;55.20;;;6.36;100.00;102977.81;5010205;28;20065;-78
2023/12/16 03:58:26;;;;;;;20.30;18.00;;;7.60;56.40;;;5.61;100.00;102851.44;4995113;28;20129;-78
2023/12/16 04:00:53;;;;;;;24.60;16.60;;;7.60;56.20;;;6.43;100.00;102988.53;5011986;28;20046;-78
2023/12/16 04:03:20;;;;;;;23.75;17.10;;;7.60;56.20;;;6.10;100.00;102933.34;5019440;28;20507;-79
2023/12/16 04:05:49;;;;;;;22.70;17.27;;;7.60;57.40;;;6.30;100.00;102977.63;4992408;28;20136;-79
2023/12/16 04:08:16;;;;;;;26.20;17.85;;;7.60;57.70;;;6.30;100.00;102961.03;5017024;28;20084;-79
2023/12/16 04:10:43;;;;;;;20.77;16.45;;;7.70;55.60;;;6.36;100.00;102990.91;5011962;28;20069;-78
2023/12/16 04:13:10;;;;;;;21.00;16.30;;;7.70;53.80;;;6.39;100.00;102982.28;5011610;28;20045;-78
2023/12/16 04:15:37;;;;;;;21.83;17.48;;;7.60;53.70;;;6.02;100.00;102931.31;4987078;28;20493;-78
2023/12/16 04:18:05;;;;;;;23.05;17.33;;;7.60;55.00;;;6.01;100.00;102916.41;5006353;28;20057;-78
2023/12/16 04:20:32;;;;;;;21.95;17.08;;;7.60;53.20;;;6.35;100.00;102980.41;4997116;28;20487;-78
2023/12/16 04:22:59;;;;;;;20.08;16.80;;;7.60;53.00;;;6.12;100.00;102940.38;4994014;28;20058;-79
2023/12/16 04:25:26;;;;;;;23.13;16.67;;;7.70;52.30;;;6.32;100.00;102969.81;5025820;28;20544;-78
2023/12/16 04:27:53;;;;;;;23.90;17.23;;;7.60;52.00;;;6.21;100.00;102952.03;4989815;28;20043;-78
2023/12/16 04:30:20;;;;;;;21.10;15.65;;;7.60;52.40;;;6.03;100.00;102927.84;5007240;28;20139;-78
2023/12/16 04:32:48;;;;;;;19.48;17.38;;;7.70;51.10;;;6.36;100.00;102975.22;5016324;28;20041;-78
2023/12/16 04:35:15;;;;;;;20.48;15.88;;;7.60;50.90;;;5.81;100.00;102886.13;4992012;28;20050;-78
2023/12/16 04:37:41;;;;;;;20.60;15.45;;;7.70;49.70;;;6.31;100.00;102968.94;5010606;28;20125;-78
2023/12/16 04:40:09;;;;;;;23.63;16.48;;;7.70;50.70;;;6.29;100.00;102970.59;4993624;28;20113;-78
2023/12/16 04:42:36;;;;;;;19.90;16.02;;;7.60;51.00;;;6.24;100.00;102962.59;5009492;28;20044;-78
2023/12/16 04:45:04;;;;;;;22.20;16.33;;;7.70;50.10;;;6.26;100.00;102973.13;5007327;28;20129;-77
2023/12/16 04:47:31;;;;;;;20.52;17.23;;;7.70;48.80;;;6.16;100.00;102950.09;5007177;28;20050;-77
2023/12/16 04:49:58;;;;;;;22.70;15.75;;;7.60;48.60;;;6.19;100.00;102952.81;5033519;28;20655;-77
2023/12/16 04:52:25;;;;;;;21.77;16.90;;;7.70;47.90;;;6.41;100.00;103000.66;5023925;28;20501;-77
2023/12/16 04:54:53;;;;;;;22.50;16.75;;;7.70;46.10;;;6.45;100.00;102998.19;4997496;28;20053;-78
2023/12/16 04:57:20;;;;;;;21.20;15.93;;;7.70;45.90;;;6.45;100.00;102995.56;5029381;28;20045;-78
2023/12/16 04:59:47;;;;;;;20.88;17.23;;;7.70;46.30;;;6.39;100.00;102988.38;5008167;28;20125;-78
2023/12/16 05:02:14;;;;;;;21.27;16.38;;;7.70;48.60;;;6.45;100.00;103000.78;5012645;28;20118;-78
2023/12/16 05:04:41;;;;;;;19.70;15.00;;;7.70;48.00;;;6.36;100.00;102980.44;5010720;28;20117;-78
2023/12/16 05:07:08;;;;;;;24.38;17.05;;;7.70;45.10;;;6.45;100.00;103000.78;4994901;28;20058;-78
2023/12/16 05:09:35;;;;;;;23.23;16.65;;;7.70;44.20;;;6.36;100.00;102983.06;5007443;28;20115;-78
2023/12/16 05:12:02;;;;;;;21.98;16.45;;;7.70;46.30;;;6.30;100.00;102974.09;4988132;28;20047;-78
2023/12/16 05:14:29;;;;;;;24.77;17.20;;;7.60;48.70;;;6.15;100.00;102962.25;5010166;28;20085;-78
2023/12/16 05:16:56;;;;;;;22.10;18.45;;;7.60;52.30;;;6.32;100.00;102995.97;5007564;28;20088;-78
2023/12/16 05:19:23;;;;;;;24.10;17.83;;;7.60;54.80;;;6.24;100.00;102985.22;5026268;28;20073;-78
2023/12/16 05:21:50;;;;;;;22.00;17.25;;;7.30;55.50;;;6.21;100.00;102979.88;4995496;28;20551;-78
2023/12/16 05:24:18;;;;;;;22.20;16.95;;;7.60;55.90;;;6.27;100.00;102992.31;5010992;28;20096;-77
2023/12/16 05:26:45;;;;;;;22.02;16.60;;;7.60;56.60;;;6.21;100.00;102975.56;4994050;28;20152;-77
2023/12/16 05:29:12;;;;;;;18.88;16.27;;;7.60;54.20;;;6.36;100.00;103003.09;5009898;28;20053;-77
2023/12/16 05:31:39;;;;;;;21.13;16.33;;;7.60;54.20;;;6.31;100.00;102988.94;5012401;28;20080;-77
2023/12/16 05:34:07;;;;;;;24.95;18.30;;;7.50;56.40;;;6.27;100.00;102985.38;5012664;28;20042;-78
2023/12/16 05:36:34;;;;;;;20.75;16.23;;;7.60;56.40;;;6.25;100.00;102976.56;4990736;28;20417;-77
2023/12/16 05:39:01;;;;;;;23.08;17.95;;;7.60;54.80;;;6.30;100.00;102985.47;5005671;28;20551;-77
2023/12/16 05:41:28;;;;;;;23.38;17.48;;;7.60;53.80;;;6.36;100.00;103003.09;5005182;28;20065;-76
2023/12/16 05:43:55;;;;;;;24.23;18.00;;;7.60;54.50;;;6.21;100.00;102982.50;5018133;28;20350;-76
2023/12/16 05:46:22;;;;;;;25.60;19.10;;;7.60;53.80;;;6.31;100.00;102991.56;4971837;28;20046;-76
2023/12/16 05:48:49;;;;;;;21.60;17.33;;;7.70;53.60;;;6.39;100.00;103000.59;5013799;28;20042;-76
2023/12/16 05:51:16;;;;;;;22.65;17.80;;;7.70;52.00;;;6.38;100.00;102983.13;5007183;28;20059;-76
2023/12/16 05:53:43;;;;;;;24.55;18.55;;;7.80;48.00;;;6.59;100.00;103006.53;4998949;28;20050;-76
2023/12/16 05:56:13;;;;;;;22.38;16.73;;;7.80;45.70;;;6.49;100.00;102994.88;5008384;28;20528;-77
2023/12/16 05:58:40;;;;;;;22.75;17.10;;;7.90;41.70;;;6.44;100.00;102985.06;5000483;28;20053;-76
2023/12/16 06:01:09;;;;;;;21.20;17.17;;;7.80;42.20;;;6.49;100.00;102989.63;5003097;28;20042;-76
2023/12/16 06:03:36;;;;;;;23.30;17.48;;;7.80;42.00;;;6.52;100.00;102994.97;4997812;28;20136;-76
2023/12/16 06:06:05;;;;;;;23.00;18.27;;;7.90;40.90;;;6.63;100.00;103023.19;5008991;28;20651;-76
2023/12/16 06:08:31;;;;;;;29.05;21.45;;;7.80;41.60;;;6.38;100.00;102984.00;5009930;28;20046;-76
2023/12/16 06:10:58;;;;;;;26.17;23.30;;;7.80;44.50;;;6.51;100.00;103019.34;5007600;28;20044;-76
2023/12/16 06:13:25;;;;;;;29.90;23.20;;;7.60;49.50;;;6.34;100.00;103010.88;5017479;28;20046;-76
2023/12/16 06:15:53;;;;;;;28.58;22.95;;;7.60;51.00;;;6.44;100.00;103033.03;5024267;28;20052;-76
2023/12/16 06:18:38;;;;;;;23.85;20.33;;;7.70;50.80;;;6.34;100.00;103015.25;5000261;28;20050;-77
2023/12/16 06:21:06;;;;;;;27.10;20.42;;;7.70;48.50;;;6.40;100.00;103038.97;5008395;28;20080;-77
2023/12/16 06:23:32;;;;;;;23.70;19.50;;;7.60;50.20;;;6.40;100.00;103041.59;5024912;28;20057;-76
2023/12/16 06:26:00;;;;;;;22.35;18.33;;;7.70;48.90;;;6.39;100.00;103034.59;5020997;28;20073;-77
2023/12/16 06:28:30;;;;;;;23.55;18.33;;;7.70;47.60;;;6.37;100.00;103041.50;5023688;28;20471;-76
2023/12/16 06:30:57;;;;;;;26.63;19.08;;;7.60;48.90;;;6.34;100.00;103041.38;5008157;28;20084;-77
2023/12/16 06:33:24;;;;;;;23.88;18.35;;;7.60;50.50;;;6.35;100.00;103033.56;5030297;28;20124;-76
2023/12/16 06:35:52;;;;;;;30.38;18.48;;;7.60;51.20;;;6.23;100.00;103020.03;5009579;28;20787;-77
2023/12/16 06:38:19;;;;;;;25.90;19.73;;;7.60;51.90;;;6.31;100.00;103041.25;5008372;28;20045;-76
2023/12/16 06:40:50;;;;;;;27.80;20.65;;;7.50;55.00;;;6.19;100.00;103033.84;5008359;28;20049;-77
2023/12/16 06:43:17;;;;;;;23.52;18.05;;;7.50;56.40;;;6.25;100.00;103047.16;5008388;28;20459;-77
2023/12/16 06:45:44;;;;;;;25.38;19.58;;;7.50;57.60;;;6.21;100.00;103042.63;5008120;28;20076;-77
2023/12/16 06:48:11;;;;;;;214.05;138.20;;;7.40;58.20;;;6.21;100.00;103043.53;5004121;28;20042;-76
2023/12/16 06:50:39;;;;;;;39.60;30.38;;;7.50;59.20;;;6.06;100.00;103007.25;5000431;28;20574;-76
2023/12/16 06:53:06;;;;;;;41.17;35.45;;;7.50;57.60;;;5.97;100.00;102988.59;4979720;28;20045;-77
2023/12/16 06:55:35;;;;;;;47.72;39.38;;;7.40;55.80;;;6.11;100.00;103017.88;5007867;28;20047;-77
2023/12/16 06:58:02;;;;;;;40.50;32.22;;;7.40;57.80;;;6.02;100.00;103013.19;5007689;28;20053;-77
2023/12/16 07:00:29;;;;;;;101.55;87.47;;;7.40;61.00;;;6.06;100.00;103028.16;5007362;28;20092;-76
2023/12/16 07:02:56;;;;;;;59.95;54.17;;;7.40;59.50;;;6.11;100.00;103049.25;4998354;28;20068;-77
2023/12/16 07:05:23;;;;;;;27.50;22.17;;;7.30;61.50;;;6.06;100.00;103054.28;5006889;28;20049;-77
2023/12/16 07:07:50;;;;;;;23.40;19.25;;;7.30;62.80;;;5.93;100.00;103028.50;5020925;28;20030;-77
2023/12/16 07:10:17;;;;;;;31.70;27.15;;;7.30;61.30;;;6.08;100.00;103062.22;5021404;28;20042;-77
2023/12/16 07:12:44;;;;;;;41.17;36.85;;;7.30;60.50;;;6.04;100.00;103065.53;5008795;28;20566;-77
2023/12/16 07:15:11;;;;;;;27.63;21.50;;;7.30;60.50;;;5.90;100.00;103041.44;5009615;28;20081;-76
2023/12/16 07:17:40;;;;;;;25.70;19.83;;;7.40;61.00;;;6.09;100.00;103058.75;5017601;28;20133;-77
2023/12/16 07:20:09;;;;;;;27.80;21.27;;;7.30;60.00;;;5.96;100.00;103044.31;5010841;28;20456;-76
2023/12/16 07:22:36;;;;;;;25.35;22.05;;;7.30;59.90;;;6.04;100.00;103057.72;5002855;28;20073;-77
2023/12/16 07:25:04;;;;;;;24.83;20.40;;;7.30;62.70;;;6.05;100.00;103067.31;5004360;28;20571;-77
2023/12/16 07:27:31;;;;;;;26.42;21.77;;;7.30;62.10;;;6.03;100.00;103063.78;5016670;28;20511;-77
2023/12/16 07:29:58;;;;;;;24.63;18.77;;;7.30;60.80;;;5.99;100.00;103053.97;5009635;28;20117;-79
2023/12/16 07:32:25;;;;;;;26.33;21.27;;;7.30;61.50;;;5.94;100.00;103046.84;5014933;28;20158;-78
2023/12/16 07:34:52;;;;;;;23.02;18.33;;;7.30;62.60;;;5.91;100.00;103044.13;5006665;28;20054;-79
2023/12/16 07:37:19;;;;;;;26.77;19.73;;;7.20;62.30;;;6.00;100.00;103063.59;5002469;28;20049;-78
2023/12/16 07:39:47;;;;;;;25.42;19.65;;;7.30;61.70;;;5.92;100.00;103048.53;5010684;28;20500;-78
2023/12/16 07:42:14;;;;;;;27.38;20.50;;;7.20;61.50;;;5.95;100.00;103056.47;4988139;28;20066;-76
2023/12/16 07:44:44;;;;;;;27.67;22.17;;;7.20;62.90;;;5.94;100.00;103069.50;5003704;28;20463;-77
2023/12/16 07:47:11;;;;;;;27.40;19.70;;;7.20;63.30;;;5.85;100.00;103048.22;4994427;28;20077;-78
2023/12/16 07:49:38;;;;;;;26.42;23.30;;;7.30;62.50;;;5.90;100.00;103064.97;4985880;28;20100;-77
2023/12/16 07:52:05;;;;;;;28.70;23.50;;;7.30;62.60;;;5.96;100.00;103087.00;4998946;28;20520;-78
2023/12/16 07:54:32;;;;;;;24.67;20.02;;;7.30;64.40;;;5.98;100.00;103089.69;4991923;28;20496;-78
2023/12/16 07:56:59;;;;;;;26.38;21.02;;;7.30;62.60;;;6.01;100.00;103082.00;4994087;28;20516;-79
2023/12/16 07:59:26;;;;;;;30.60;22.13;;;7.90;60.60;;;5.96;100.00;103062.59;5006738;28;20050;-76
2023/12/16 08:01:55;;;;;;;29.92;22.77;;;7.60;59.80;;;5.93;100.00;103055.53;5017167;28;20042;-79
2023/12/16 08:04:23;;;;;;;30.15;22.65;;;7.40;58.60;;;6.01;100.00;103074.16;5018226;28;20317;-77
2023/12/16 08:06:50;;;;;;;24.98;20.88;;;7.40;60.20;;;5.92;100.00;103061.59;4997639;28;20481;-77
2023/12/16 08:09:17;;;;;;;26.30;20.13;;;7.60;61.90;;;6.00;100.00;103069.72;4991221;28;20560;-77
2023/12/16 08:11:44;;;;;;;28.13;20.27;;;7.40;60.10;;;6.02;100.00;103069.84;5006315;28;20065;-78
2023/12/16 08:14:12;;;;;;;25.17;21.15;;;7.30;61.70;;;6.02;100.00;103080.28;5017727;28;20077;-78
2023/12/16 08:16:42;;;;;;;28.02;21.05;;;7.30;64.10;;;5.97;100.00;103087.91;4989198;28;20409;-78
2023/12/16 08:19:12;;;;;;;28.17;21.92;;;7.30;66.60;;;5.81;100.00;103070.72;4967620;28;20064;-76
2023/12/16 08:21:39;;;;;;;;;;;7.30;66.70;;;5.78;100.00;103061.06;5015988;28;20065;-78
2023/12/16 08:24:06;;;;;;;28.65;24.55;;;7.30;68.90;;;6.01;100.00;103100.28;5004330;28;19925;-78
2023/12/16 08:26:36;;;;;;;25.63;20.98;;;8.50;69.90;;;5.82;100.00;103056.81;4990679;28;20046;-78
2023/12/16 08:29:03;;;;;;;27.55;21.42;;;7.30;67.80;;;6.04;100.00;103094.31;5000452;28;20042;-79
2023/12/16 08:31:30;;;;;;;28.08;20.17;;;7.30;66.10;;;6.07;100.00;103094.41;5001127;28;20066;-79
2023/12/16 08:34:03;;;;;;;27.80;21.65;;;7.40;67.70;;;6.01;100.00;103086.28;5008824;28;20648;-80
2023/12/16 08:36:30;;;;;;;;;;;7.40;68.20;;;5.71;100.00;103039.88;5007724;28;20784;-79
2023/12/16 08:38:57;;;;;;;34.55;25.55;;;7.70;66.60;;;5.63;100.00;103029.97;5009732;28;19921;-79
2023/12/16 08:41:26;;;;;;;29.65;21.95;;;8.60;69.30;;;5.87;100.00;103070.97;4999271;28;20065;-79
2023/12/16 08:43:54;;;;;;;33.58;25.60;;;7.40;67.80;;;6.15;100.00;103107.78;5020705;28;20069;-78
2023/12/16 08:46:23;;;;;;;31.92;23.10;;;7.40;68.40;;;5.70;100.00;103030.22;5009994;28;20042;-79
2023/12/16 08:48:55;;;;;;;26.85;21.23;;;7.40;68.20;;;6.10;100.00;103098.03;5003936;28;20550;-77
2023/12/16 08:51:23;;;;;;;28.63;21.13;;;7.50;66.60;;;6.04;100.00;103083.84;5012994;28;20049;-78
2023/12/16 08:53:51;;;;;;;29.75;23.77;;;7.70;65.70;;;6.14;100.00;103104.25;5008781;28;20046;-78
2023/12/16 08:56:23;;;;;;;26.80;21.50;;;7.50;65.40;;;6.22;100.00;103115.91;5023894;28;20050;-77
2023/12/16 08:58:50;;;;;;;30.10;21.23;;;7.50;65.00;;;6.24;100.00;103135.16;4997005;28;20767;-78
2023/12/16 09:01:17;;;;;;;24.17;20.10;;;7.50;64.70;;;5.99;100.00;103093.19;5012552;28;20080;-78
2023/12/16 09:03:45;;;;;;;25.48;20.60;;;7.60;63.40;;;6.28;100.00;103135.28;4988804;28;20041;-79
2023/12/16 09:06:14;;;;;;;25.27;20.52;;;7.60;62.70;;;6.23;100.00;103119.41;5012075;28;20042;-78
2023/12/16 09:08:44;;;;;;;27.60;20.67;;;7.60;61.20;;;6.39;100.00;103147.03;4989383;28;20118;-78
2023/12/16 09:11:11;;;;;;;22.95;18.48;;;7.60;58.80;;;6.35;100.00;103140.78;5012525;28;20522;-78
2023/12/16 09:13:38;;;;;;;23.70;17.98;;;7.70;58.90;;;6.34;100.00;103146.88;4996733;28;20381;-79
2023/12/16 09:16:05;;;;;;;74.95;54.38;;;7.80;55.70;;;6.33;100.00;103141.59;5012943;28;20053;-78
2023/12/16 09:18:35;;;;;;;28.55;22.20;;;7.80;55.90;;;6.49;100.00;103177.97;5013307;28;20505;-78
2023/12/16 09:21:03;;;;;;;30.95;20.23;;;7.80;56.30;;;6.50;100.00;103173.59;5012102;28;20389;-79
2023/12/16 09:23:30;;;;;;;27.30;21.13;;;7.70;58.70;;;6.60;100.00;103186.22;5000550;28;20068;-78
2023/12/16 09:25:57;;;;;;;25.20;19.65;;;7.80;59.90;;;6.55;100.00;103179.00;5020921;28;20050;-78
2023/12/16 09:28:24;;;;;;;27.27;19.30;;;7.70;57.30;;;6.48;100.00;103150.03;5011519;28;20052;-77
2023/12/16 09:30:54;;;;;;;22.60;18.88;;;7.80;56.20;;;6.55;100.00;103160.72;4980670;28;20552;-77
2023/12/16 09:33:21;;;;;;;24.73;19.20;;;7.80;57.40;;;6.48;100.00;103147.41;4988631;28;20173;-77
2023/12/16 09:35:49;;;;;;;23.90;18.70;;;7.90;56.50;;;6.56;100.00;103155.53;4998369;28;20054;-78
2023/12/16 09:38:16;;;;;;;26.30;20.52;;;7.90;57.40;;;6.60;100.00;103159.13;4999538;28;20464;-77
2023/12/16 09:40:43;;;;;;;33.35;21.27;;;7.90;56.40;;;6.66;100.00;103165.50;4995635;28;20045;-78
2023/12/16 09:43:17;;;;;;;26.52;19.20;;;7.90;54.30;;;6.62;100.00;103147.00;5010073;28;20054;-77
2023/12/16 09:45:47;;;;;;;25.58;18.83;;;8.50;50.80;;;6.77;100.00;103165.00;4990997;28;20109;-81
2023/12/16 09:48:19;;;;;;;22.70;18.15;;;7.50;47.40;;;6.82;100.00;103179.16;4978073;28;20053;-80
2023/12/16 09:50:47;;;;;;;23.65;18.92;;;8.60;48.10;;;6.31;100.00;103093.53;4994213;28;20061;-81
2023/12/16 09:53:14;;;;;;;30.70;22.45;;;8.00;48.00;;;6.50;100.00;103124.81;5006089;28;20074;-80
2023/12/16 09:55:44;;;;;;;63.80;50.10;;;8.00;45.90;;;6.60;100.00;103138.22;4986344;28;20054;-80
2023/12/16 09:58:16;;;;;;;27.30;21.65;;;8.00;49.60;;;6.62;100.00;103136.53;5007572;28;20050;-80
2023/12/16 10:00:46;;;;;;;24.38;20.05;;;8.00;45.60;;;6.76;100.00;103169.34;5006376;28;20048;-80
2023/12/16 10:03:17;;;;;;;25.58;21.67;;;8.00;45.70;;;6.83;100.00;103177.44;5023324;28;20050;-81
2023/12/16 10:05:46;;;;;;;23.35;18.23;;;8.00;46.20;;;6.75;100.00;103164.94;5014165;28;20826;-82
2023/12/16 10:08:16;;;;;;;31.67;21.50;;;8.10;46.80;;;6.65;100.00;103142.78;4991281;28;20078;-83
2023/12/16 10:10:46;;;;;;;26.73;19.55;;;8.10;42.80;;;6.53;100.00;103132.78;5002505;28;20265;-82